createdAt,value
2023-05-14T00:00:26.022Z,74.07
2023-05-14T00:03:14.594Z,74.45
2023-05-14T00:05:42.919Z,75.06
2023-05-14T00:08:10.983Z,74.57
2023-05-14T00:10:39.086Z,75.04
2023-05-14T00:13:07.225Z,75.46
2023-05-14T00:15:35.550Z,75.46
2023-05-14T00:18:04.168Z,74.04
2023-05-14T00:20:32.372Z,74.03
2023-05-14T00:23:01.363Z,74.70
2023-05-14T00:25:29.863Z,74.36
2023-05-14T00:27:57.912Z,74.64
2023-05-14T00:30:26.035Z,74.89
2023-05-14T00:32:55.011Z,74.89
2023-05-14T00:35:23.359Z,74.93
2023-05-14T00:37:51.634Z,74.28
2023-05-14T00:40:21.234Z,74.65
2023-05-14T00:42:49.936Z,74.04
2023-05-14T00:45:18.210Z,73.61
2023-05-14T00:47:46.823Z,73.79
2023-05-14T00:50:16.914Z,73.82
2023-05-14T00:52:45.594Z,73.62
2023-05-14T00:55:16.684Z,74.04
2023-05-14T00:57:45.630Z,74.30
2023-05-14T01:00:14.328Z,74.01
2023-05-14T01:02:42.562Z,74.10
2023-05-14T01:05:11.279Z,74.83
2023-05-14T01:07:48.665Z,75.58
2023-05-14T01:10:52.691Z,75.10
2023-05-14T01:13:26.627Z,75.85
2023-05-14T01:15:57.888Z,75.12
2023-05-14T01:18:28.305Z,75.39
2023-05-14T01:20:56.541Z,77.11
2023-05-14T01:23:25.434Z,77.22
2023-05-14T01:25:53.469Z,77.76
2023-05-14T01:28:33.151Z,76.64
2023-05-14T01:31:12.376Z,76.57
2023-05-14T01:33:43.477Z,77.30
2023-05-14T01:36:12.206Z,76.86
2023-05-14T01:38:45.714Z,75.83
2023-05-14T01:41:15.670Z,76.63
2023-05-14T01:43:45.153Z,78.52
2023-05-14T01:46:13.224Z,79.15
2023-05-14T01:48:41.595Z,79.28
2023-05-14T01:51:10.015Z,79.64
2023-05-14T01:53:38.643Z,79.88
2023-05-14T01:56:07.246Z,79.23
2023-05-14T01:58:35.413Z,78.65
2023-05-14T02:01:03.715Z,78.04
2023-05-14T02:03:31.970Z,77.69
2023-05-14T02:06:01.056Z,77.08
2023-05-14T02:08:29.418Z,77.30
2023-05-14T02:10:57.708Z,77.20
2023-05-14T02:13:26.614Z,76.56
2023-05-14T02:15:55.016Z,77.88
2023-05-14T02:18:23.358Z,78.54
2023-05-14T02:20:51.524Z,78.90
2023-05-14T02:23:25.690Z,78.67
2023-05-14T02:25:59.448Z,78.05
2023-05-14T02:28:27.637Z,77.81
2023-05-14T02:31:00.831Z,77.96
2023-05-14T02:33:29.113Z,78.12
2023-05-14T02:35:57.372Z,78.28
2023-05-14T02:38:26.970Z,78.72
2023-05-14T02:40:57.399Z,78.29
2023-05-14T02:43:25.444Z,79.26
2023-05-14T02:45:53.861Z,79.72
2023-05-14T02:48:22.543Z,79.79
2023-05-14T02:50:52.168Z,79.27
2023-05-14T02:53:20.531Z,78.63
2023-05-14T02:55:48.703Z,78.73
2023-05-14T02:58:17.076Z,78.62
2023-05-14T03:00:45.382Z,78.91
2023-05-14T03:03:14.266Z,79.12
2023-05-14T03:05:42.834Z,79.38
2023-05-14T03:08:10.904Z,78.94
2023-05-14T03:10:38.973Z,78.13
2023-05-14T03:13:07.370Z,77.71
2023-05-14T03:15:36.018Z,77.16
2023-05-14T03:18:05.184Z,77.31
2023-05-14T03:20:33.303Z,77.11
2023-05-14T03:23:02.000Z,77.42
2023-05-14T03:25:30.073Z,77.28
2023-05-14T03:27:59.488Z,76.61
2023-05-14T03:30:27.814Z,76.97
2023-05-14T03:32:57.719Z,76.63
2023-05-14T03:35:26.036Z,76.53
2023-05-14T03:37:54.215Z,75.72
2023-05-14T03:40:22.416Z,75.43
2023-05-14T03:42:51.690Z,75.95
2023-05-14T03:45:19.966Z,75.78
2023-05-14T03:47:48.206Z,75.81
2023-05-14T03:50:16.739Z,75.54
2023-05-14T03:52:46.122Z,75.01
2023-05-14T03:55:14.302Z,75.13
2023-05-14T03:57:44.219Z,74.70
2023-05-14T04:00:13.313Z,74.59
2023-05-14T04:02:47.571Z,74.18
2023-05-14T04:05:17.042Z,73.56
2023-05-14T04:07:46.218Z,72.51
2023-05-14T04:10:14.406Z,72.68
2023-05-14T04:12:43.093Z,71.20
2023-05-14T04:15:12.521Z,70.21
2023-05-14T04:17:40.887Z,70.68
2023-05-14T04:20:09.899Z,71.15
2023-05-14T04:22:38.163Z,70.23
2023-05-14T04:25:07.820Z,69.88
2023-05-14T04:27:35.826Z,69.65
2023-05-14T04:30:05.019Z,69.35
2023-05-14T04:32:33.219Z,69.87
2023-05-14T04:35:01.270Z,68.70
2023-05-14T04:37:29.651Z,68.00
2023-05-14T04:39:57.821Z,68.16
2023-05-14T04:42:25.992Z,67.83
2023-05-14T04:44:54.265Z,66.86
2023-05-14T04:47:22.778Z,67.06
2023-05-14T04:49:51.027Z,65.81
2023-05-14T04:52:19.306Z,64.06
2023-05-14T04:54:47.640Z,62.46
2023-05-14T04:57:17.183Z,62.57
2023-05-14T04:59:45.262Z,61.78
2023-05-14T05:02:13.537Z,61.21
2023-05-14T05:04:41.705Z,60.04
2023-05-14T05:07:09.994Z,57.88
2023-05-14T05:09:38.158Z,56.58
2023-05-14T05:12:06.945Z,57.00
2023-05-14T05:14:35.133Z,54.70
2023-05-14T05:17:04.026Z,52.94
2023-05-14T05:19:42.372Z,52.12
2023-05-14T05:22:12.461Z,53.76
2023-05-14T05:24:40.632Z,53.63
2023-05-14T05:27:08.811Z,51.95
2023-05-14T05:29:37.282Z,51.54
2023-05-14T05:32:06.276Z,48.72
2023-05-14T05:34:35.071Z,48.14
2023-05-14T05:37:03.438Z,47.51
2023-05-14T05:39:35.215Z,46.89
2023-05-14T05:42:05.553Z,45.78
2023-05-14T05:44:33.696Z,44.25
2023-05-14T05:47:02.256Z,43.18
2023-05-14T05:49:30.753Z,44.14
2023-05-14T05:51:59.040Z,41.32
2023-05-14T05:54:27.417Z,41.90
2023-05-14T05:56:55.587Z,42.53
2023-05-14T05:59:24.479Z,41.97
2023-05-14T06:01:52.919Z,41.58
2023-05-14T06:04:21.682Z,39.79
2023-05-14T06:06:49.832Z,39.26
2023-05-14T06:09:18.100Z,39.69
2023-05-14T06:11:46.267Z,37.71
2023-05-14T06:14:14.343Z,38.24
2023-05-14T06:16:42.432Z,37.18
2023-05-14T06:19:11.542Z,36.84
2023-05-14T06:21:39.783Z,36.20
2023-05-14T06:24:08.373Z,35.72
2023-05-14T06:26:36.651Z,35.56
2023-05-14T06:29:04.719Z,34.64
2023-05-14T06:31:32.814Z,34.13
2023-05-14T06:34:01.070Z,33.29
2023-05-14T06:36:29.140Z,34.11
2023-05-14T06:38:57.208Z,33.17
2023-05-14T06:41:25.279Z,32.59
2023-05-14T06:43:53.436Z,32.84
2023-05-14T06:46:21.732Z,31.87
2023-05-14T06:48:49.927Z,31.19
2023-05-14T06:51:18.385Z,30.61
2023-05-14T06:53:47.898Z,29.89
2023-05-14T06:56:16.067Z,30.06
2023-05-14T06:58:44.133Z,29.56
2023-05-14T07:01:12.419Z,28.71
2023-05-14T07:03:40.692Z,28.31
2023-05-14T07:06:08.893Z,28.67
2023-05-14T07:08:37.030Z,28.77
2023-05-14T07:11:05.338Z,28.75
2023-05-14T07:13:33.610Z,28.56
2023-05-14T07:16:01.972Z,28.44
2023-05-14T07:18:30.499Z,28.01
2023-05-14T07:20:58.831Z,28.43
2023-05-14T07:23:27.007Z,27.50
2023-05-14T07:25:55.389Z,27.46
2023-05-14T07:28:23.563Z,27.33
2023-05-14T07:30:51.802Z,27.60
2023-05-14T07:33:20.014Z,27.36
2023-05-14T07:35:48.203Z,26.23
2023-05-14T07:38:17.276Z,25.98
2023-05-14T07:40:45.866Z,25.54
2023-05-14T07:43:14.462Z,25.96
2023-05-14T07:45:42.844Z,24.85
2023-05-14T07:48:11.548Z,25.61
2023-05-14T07:50:39.900Z,26.28
2023-05-14T07:53:08.593Z,26.66
2023-05-14T07:55:37.159Z,26.03
2023-05-14T07:58:05.336Z,26.05
2023-05-14T08:00:33.607Z,26.69
2023-05-14T08:03:01.819Z,26.62
2023-05-14T08:05:30.169Z,25.57
2023-05-14T08:07:58.168Z,25.10
2023-05-14T08:10:27.344Z,25.81
2023-05-14T08:12:55.833Z,26.22
2023-05-14T08:15:27.082Z,25.27
2023-05-14T08:17:56.619Z,25.79
2023-05-14T08:20:24.928Z,25.59
2023-05-14T08:22:53.321Z,24.38
2023-05-14T08:25:21.400Z,24.20
2023-05-14T08:27:49.569Z,25.18
2023-05-14T08:30:18.264Z,24.36
2023-05-14T08:32:46.364Z,24.34
2023-05-14T08:35:14.508Z,23.64
2023-05-14T08:37:42.581Z,23.35
2023-05-14T08:40:11.981Z,23.43
2023-05-14T08:42:45.261Z,23.61
2023-05-14T08:45:22.119Z,23.79
2023-05-14T08:47:51.919Z,23.45
2023-05-14T08:50:23.661Z,23.62
2023-05-14T08:52:53.128Z,24.16
2023-05-14T08:55:21.407Z,22.87
2023-05-14T08:57:50.300Z,22.74
2023-05-14T09:00:18.903Z,24.01
2023-05-14T09:02:48.822Z,24.62
2023-05-14T09:05:19.052Z,24.32
2023-05-14T09:07:47.079Z,24.20
2023-05-14T09:10:16.283Z,24.37
2023-05-14T09:12:44.655Z,24.23
2023-05-14T09:15:13.147Z,23.80
2023-05-14T09:17:41.686Z,23.84
2023-05-14T09:20:13.116Z,23.51
2023-05-14T09:22:42.274Z,23.22
2023-05-14T09:25:12.551Z,22.82
2023-05-14T09:27:40.771Z,23.16
2023-05-14T09:30:13.529Z,22.74
2023-05-14T09:32:44.261Z,22.36
2023-05-14T09:35:19.284Z,22.58
2023-05-14T09:37:53.029Z,22.12
2023-05-14T09:40:24.378Z,22.69
2023-05-14T09:42:53.264Z,23.19
2023-05-14T09:45:21.344Z,23.45
2023-05-14T09:47:49.801Z,22.85
2023-05-14T09:50:18.096Z,21.87
2023-05-14T09:52:46.170Z,22.63
2023-05-14T09:55:15.166Z,22.94
2023-05-14T09:57:43.353Z,22.60
2023-05-14T10:00:12.945Z,22.88
2023-05-14T10:02:43.490Z,23.72
2023-05-14T10:05:13.380Z,23.54
2023-05-14T10:07:47.918Z,23.38
2023-05-14T10:10:19.360Z,23.29
2023-05-14T10:12:58.328Z,23.80
2023-05-14T10:15:51.867Z,23.51
2023-05-14T10:18:23.761Z,23.03
2023-05-14T10:21:06.737Z,23.31
2023-05-14T10:23:38.151Z,23.07
2023-05-14T10:26:07.074Z,23.16
2023-05-14T10:28:35.868Z,22.66
2023-05-14T10:31:04.116Z,22.51
2023-05-14T10:33:47.402Z,22.34
2023-05-14T10:36:15.868Z,21.20
2023-05-14T10:38:44.431Z,21.17
2023-05-14T10:41:18.124Z,21.02
2023-05-14T10:43:46.314Z,20.61
2023-05-14T10:46:15.258Z,20.88
2023-05-14T10:48:44.708Z,21.02
2023-05-14T10:51:13.282Z,21.77
2023-05-14T10:53:42.496Z,22.87
2023-05-14T10:56:13.029Z,22.90
2023-05-14T10:58:45.230Z,21.94
2023-05-14T11:01:14.467Z,22.93
2023-05-14T11:03:45.549Z,22.17
2023-05-14T11:06:15.878Z,20.66
2023-05-14T11:08:44.784Z,20.51
2023-05-14T11:11:13.352Z,20.60
2023-05-14T11:13:41.767Z,20.72
2023-05-14T11:18:42.250Z,20.57
2023-05-14T11:21:10.569Z,20.42
2023-05-14T11:23:39.127Z,21.21
2023-05-14T11:26:07.519Z,22.01
2023-05-14T11:28:36.591Z,20.68
2023-05-14T11:31:05.908Z,19.33
2023-05-14T11:33:34.173Z,19.53
2023-05-14T11:36:02.664Z,20.08
2023-05-14T11:38:30.840Z,18.75
2023-05-14T11:40:59.832Z,20.46
2023-05-14T11:43:31.505Z,20.85
2023-05-14T11:45:59.598Z,21.14
2023-05-14T11:48:28.135Z,20.89
2023-05-14T11:50:56.180Z,20.21
2023-05-14T11:53:30.171Z,19.39
2023-05-14T11:55:58.416Z,18.81
2023-05-14T11:58:26.767Z,17.30
2023-05-14T12:00:56.081Z,17.65
2023-05-14T12:03:30.138Z,18.35
2023-05-14T12:06:00.310Z,19.75
2023-05-14T12:08:30.947Z,18.77
2023-05-14T12:11:00.806Z,18.18
2023-05-14T12:13:33.041Z,17.57
2023-05-14T12:16:02.552Z,17.42
2023-05-14T12:18:32.591Z,17.46
2023-05-14T12:21:06.044Z,18.48
2023-05-14T12:23:34.314Z,17.97
2023-05-14T12:26:04.315Z,18.30
2023-05-14T12:28:34.295Z,20.09
2023-05-14T12:31:04.638Z,20.68
2023-05-14T12:33:33.054Z,21.28
2023-05-14T12:36:20.459Z,21.29
2023-05-14T12:38:50.968Z,21.39
2023-05-14T12:41:19.185Z,21.96
2023-05-14T12:43:48.288Z,21.07
2023-05-14T12:46:17.411Z,21.29
2023-05-14T12:48:46.502Z,21.32
2023-05-14T12:51:15.258Z,22.56
2023-05-14T12:53:43.460Z,22.76
2023-05-14T12:56:13.035Z,22.79
2023-05-14T12:58:41.627Z,24.62
2023-05-14T13:01:10.625Z,26.19
2023-05-14T13:03:38.886Z,27.79
2023-05-14T13:06:08.097Z,28.20
2023-05-14T13:08:36.258Z,29.17
2023-05-14T13:11:04.444Z,30.11
2023-05-14T13:13:32.919Z,30.70
2023-05-14T13:16:01.195Z,31.32
2023-05-14T13:18:29.362Z,32.80
2023-05-14T13:20:57.639Z,32.93
2023-05-14T13:23:26.037Z,33.63
2023-05-14T13:25:54.196Z,32.63
2023-05-14T13:28:22.474Z,30.30
2023-05-14T13:31:08.120Z,30.17
2023-05-14T13:33:38.181Z,31.01
2023-05-14T13:36:07.170Z,30.57
2023-05-14T13:38:35.496Z,30.93
2023-05-14T13:41:04.086Z,32.01
2023-05-14T13:43:36.128Z,32.34
2023-05-14T13:46:06.917Z,32.25
2023-05-14T13:48:37.283Z,30.63
2023-05-14T13:51:05.536Z,30.99
2023-05-14T13:53:33.709Z,30.86
2023-05-14T13:56:02.086Z,29.56
2023-05-14T13:58:30.403Z,28.99
2023-05-14T14:00:59.050Z,28.27
2023-05-14T14:03:27.119Z,28.89
2023-05-14T14:05:55.517Z,28.87
2023-05-14T14:08:24.521Z,28.47
2023-05-14T14:10:55.589Z,29.13
2023-05-14T14:13:24.615Z,29.10
2023-05-14T14:15:52.976Z,28.48
2023-05-14T14:18:21.185Z,29.84
2023-05-14T14:20:49.271Z,30.22
2023-05-14T14:23:17.546Z,30.01
2023-05-14T14:25:45.717Z,30.49
2023-05-14T14:28:14.111Z,32.19
2023-05-14T14:30:43.916Z,32.89
2023-05-14T14:33:12.073Z,32.20
2023-05-14T14:35:40.248Z,31.74
2023-05-14T14:38:08.520Z,32.42
2023-05-14T14:40:36.694Z,32.60
2023-05-14T14:43:04.875Z,32.71
2023-05-14T14:45:32.994Z,32.99
2023-05-14T14:48:26.211Z,32.74
2023-05-14T14:50:55.956Z,32.34
2023-05-14T14:53:25.120Z,33.37
2023-05-14T14:55:53.455Z,35.45
2023-05-14T14:58:22.091Z,37.51
2023-05-14T15:00:52.262Z,37.96
2023-05-14T15:03:21.432Z,38.76
2023-05-14T15:05:51.314Z,37.95
2023-05-14T15:08:20.913Z,38.93
2023-05-14T15:10:48.994Z,39.00
2023-05-14T15:13:17.789Z,38.43
2023-05-14T15:15:45.955Z,38.90
2023-05-14T15:18:14.152Z,40.18
2023-05-14T15:20:42.713Z,41.17
2023-05-14T15:23:11.828Z,43.16
2023-05-14T15:25:40.081Z,43.47
2023-05-14T15:28:08.260Z,43.19
2023-05-14T15:30:36.539Z,43.09
2023-05-14T15:33:07.952Z,43.72
2023-05-14T15:35:36.882Z,44.06
2023-05-14T15:38:05.169Z,43.94
2023-05-14T15:40:35.171Z,43.99
2023-05-14T15:43:03.412Z,44.13
2023-05-14T15:45:31.634Z,44.26
2023-05-14T15:47:59.932Z,43.54
2023-05-14T15:50:28.382Z,41.09
2023-05-14T15:52:56.767Z,40.27
2023-05-14T15:55:24.934Z,41.06
2023-05-14T15:57:53.113Z,41.14
2023-05-14T16:00:21.868Z,41.47
2023-05-14T16:02:50.636Z,42.03
2023-05-14T16:05:19.377Z,42.57
2023-05-14T16:07:47.651Z,43.16
2023-05-14T16:10:15.773Z,44.04
2023-05-14T16:12:44.097Z,44.92
2023-05-14T16:15:12.164Z,45.55
2023-05-14T16:17:41.129Z,45.89
2023-05-14T16:20:09.960Z,46.38
2023-05-14T16:22:38.128Z,47.81
2023-05-14T16:25:06.923Z,49.23
2023-05-14T16:27:35.595Z,50.96
2023-05-14T16:30:04.556Z,51.28
2023-05-14T16:32:33.908Z,51.71
2023-05-14T16:35:03.138Z,52.64
2023-05-14T16:37:31.369Z,52.48
2023-05-14T16:39:59.436Z,52.11
2023-05-14T16:42:27.824Z,51.97
2023-05-14T16:44:56.094Z,51.90
2023-05-14T16:47:24.270Z,51.75
2023-05-14T16:49:52.435Z,52.32
2023-05-14T16:52:20.479Z,53.14
2023-05-14T16:54:48.574Z,53.42
2023-05-14T16:57:16.748Z,53.76
2023-05-14T16:59:44.835Z,53.78
2023-05-14T17:02:12.996Z,54.67
2023-05-14T17:04:42.382Z,55.33
2023-05-14T17:07:11.827Z,55.52
2023-05-14T17:09:39.978Z,56.12
2023-05-14T17:12:09.737Z,56.59
2023-05-14T17:14:37.852Z,57.96
2023-05-14T17:17:06.240Z,58.86
2023-05-14T17:19:34.410Z,58.68
2023-05-14T17:22:05.964Z,59.74
2023-05-14T17:24:35.676Z,60.20
2023-05-14T17:27:03.867Z,61.23
2023-05-14T17:29:32.425Z,61.79
2023-05-14T17:32:00.786Z,61.46
2023-05-14T17:34:28.991Z,61.07
2023-05-14T17:36:57.504Z,61.05
2023-05-14T17:39:25.640Z,60.88
2023-05-14T17:41:53.813Z,60.92
2023-05-14T17:44:22.090Z,61.06
2023-05-14T17:46:50.602Z,60.84
2023-05-14T17:49:18.956Z,60.70
2023-05-14T17:51:47.136Z,60.46
2023-05-14T17:54:15.305Z,60.85
2023-05-14T17:56:43.490Z,60.95
2023-05-14T17:59:11.672Z,60.98
2023-05-14T18:01:39.832Z,61.09
2023-05-14T18:04:08.109Z,61.34
2023-05-14T18:06:36.493Z,61.23
2023-05-14T18:09:04.800Z,61.20
2023-05-14T18:11:34.186Z,61.61
2023-05-14T18:14:02.563Z,61.67
2023-05-14T18:16:31.592Z,62.07
2023-05-14T18:19:02.755Z,62.51
2023-05-14T18:21:31.091Z,62.54
2023-05-14T18:23:59.258Z,62.60
2023-05-14T18:26:27.416Z,63.10
2023-05-14T18:28:55.596Z,63.16
2023-05-14T18:31:23.895Z,63.22
2023-05-14T18:33:52.045Z,62.77
2023-05-14T18:36:20.222Z,63.58
2023-05-14T18:38:48.334Z,63.74
2023-05-14T18:41:16.459Z,63.80
2023-05-14T18:43:44.851Z,65.18
2023-05-14T18:46:13.080Z,66.47
2023-05-14T18:48:41.601Z,66.72
2023-05-14T18:51:11.411Z,65.58
2023-05-14T18:53:39.476Z,65.57
2023-05-14T18:56:09.661Z,65.70
2023-05-14T18:58:37.996Z,66.07
2023-05-14T19:01:06.181Z,66.38
2023-05-14T19:03:34.422Z,65.69
2023-05-14T19:06:02.918Z,65.77
2023-05-14T19:08:30.988Z,65.11
2023-05-14T19:10:59.057Z,66.43
2023-05-14T19:13:28.865Z,66.69
2023-05-14T19:15:57.070Z,67.26
2023-05-14T19:18:25.527Z,67.62
2023-05-14T19:20:53.798Z,68.28
2023-05-14T19:23:21.975Z,68.35
2023-05-14T19:25:50.370Z,69.24
2023-05-14T19:28:20.064Z,68.83
2023-05-14T19:30:48.136Z,68.93
2023-05-14T19:33:16.153Z,69.49
2023-05-14T19:35:44.586Z,70.03
2023-05-14T19:38:13.267Z,70.20
2023-05-14T19:40:43.039Z,69.88
2023-05-14T19:43:12.694Z,69.11
2023-05-14T19:45:42.894Z,68.99
2023-05-14T19:48:12.756Z,69.00
2023-05-14T19:50:41.715Z,69.58
2023-05-14T19:53:09.890Z,69.59
2023-05-14T19:55:38.067Z,69.18
2023-05-14T19:58:06.358Z,69.64
2023-05-14T20:00:34.720Z,70.14
2023-05-14T20:03:04.135Z,70.15
2023-05-14T20:05:34.660Z,70.49
2023-05-14T20:08:06.622Z,70.89
2023-05-14T20:10:34.893Z,71.00
2023-05-14T20:13:03.502Z,71.27
2023-05-14T20:15:31.554Z,71.65
2023-05-14T20:17:59.757Z,71.74
2023-05-14T20:20:29.678Z,71.71
2023-05-14T20:23:00.484Z,71.44
2023-05-14T20:25:28.945Z,71.54
2023-05-14T20:27:57.125Z,71.71
2023-05-14T20:30:25.445Z,71.91
2023-05-14T20:32:54.166Z,71.73
2023-05-14T20:35:22.493Z,71.73
2023-05-14T20:37:51.373Z,71.86
2023-05-14T20:40:19.693Z,71.53
2023-05-14T20:42:50.511Z,71.16
2023-05-14T20:45:18.972Z,71.77
2023-05-14T20:47:47.348Z,72.37
2023-05-14T20:50:15.511Z,71.57
2023-05-14T20:52:43.994Z,71.95
2023-05-14T20:55:13.199Z,72.11
2023-05-14T20:57:41.365Z,72.19
2023-05-14T21:00:12.715Z,71.91
2023-05-14T21:02:40.962Z,71.93
2023-05-14T21:05:09.672Z,72.70
2023-05-14T21:07:39.408Z,72.65
2023-05-14T21:10:09.490Z,72.03
2023-05-14T21:12:37.688Z,72.20
2023-05-14T21:15:06.465Z,72.88
2023-05-14T21:17:34.671Z,72.74
2023-05-14T21:20:03.537Z,72.50
2023-05-14T21:22:31.712Z,73.07
2023-05-14T21:24:59.885Z,72.53
2023-05-14T21:27:28.056Z,72.58
2023-05-14T21:29:56.232Z,73.17
2023-05-14T21:32:24.451Z,72.32
2023-05-14T21:34:52.680Z,73.29
2023-05-14T21:37:22.401Z,72.80
2023-05-14T21:39:51.087Z,74.60
2023-05-14T21:42:21.168Z,73.94
2023-05-14T21:44:49.390Z,74.24
2023-05-14T21:47:17.961Z,74.50
2023-05-14T21:49:46.042Z,73.84
2023-05-14T21:52:14.407Z,74.25
2023-05-14T21:54:42.584Z,73.62
2023-05-14T21:57:10.754Z,73.08
2023-05-14T21:59:38.936Z,73.00
2023-05-14T22:02:08.000Z,73.82
2023-05-14T22:04:36.508Z,73.70
2023-05-14T22:07:05.197Z,73.86
2023-05-14T22:09:33.472Z,74.44
2023-05-14T22:12:01.548Z,74.48
2023-05-14T22:14:29.810Z,74.29
2023-05-14T22:16:57.949Z,73.94
2023-05-14T22:19:27.091Z,73.99
2023-05-14T22:21:55.176Z,73.85
2023-05-14T22:24:23.334Z,73.97
2023-05-14T22:26:51.612Z,73.83
2023-05-14T22:29:19.687Z,74.64
2023-05-14T22:31:47.980Z,74.97
2023-05-14T22:34:16.447Z,74.61
2023-05-14T22:36:44.502Z,74.20
2023-05-14T22:39:13.589Z,75.12
2023-05-14T22:41:41.985Z,74.95
2023-05-14T22:44:10.058Z,74.75
2023-05-14T22:46:38.187Z,74.27
2023-05-14T22:49:06.601Z,75.09
2023-05-14T22:51:34.693Z,75.27
2023-05-14T22:54:02.754Z,74.83
2023-05-14T22:56:31.147Z,74.99
2023-05-14T22:59:02.184Z,74.90
2023-05-14T23:01:32.138Z,74.90
2023-05-14T23:04:00.399Z,74.99
2023-05-14T23:06:30.194Z,75.25
2023-05-14T23:08:58.639Z,75.07
2023-05-14T23:11:27.096Z,74.81
2023-05-14T23:13:55.946Z,74.77
2023-05-14T23:16:24.614Z,75.09
2023-05-14T23:18:53.016Z,75.33
2023-05-14T23:21:21.265Z,74.94
2023-05-14T23:23:49.338Z,75.11
2023-05-14T23:26:17.421Z,75.23
2023-05-14T23:28:47.511Z,74.70
2023-05-14T23:31:15.716Z,74.93
2023-05-14T23:33:44.919Z,74.93
2023-05-14T23:36:13.387Z,75.52
2023-05-14T23:38:41.968Z,74.64
2023-05-14T23:41:10.036Z,74.30
2023-05-14T23:43:38.211Z,74.47
2023-05-14T23:46:06.629Z,75.73
2023-05-14T23:48:35.176Z,76.59
2023-05-14T23:51:03.352Z,77.53
2023-05-14T23:53:31.525Z,77.99
2023-05-14T23:55:59.808Z,77.91
2023-05-14T23:58:30.225Z,77.38
